Time;durP1;ratioP1;P1;durP2;ratioP2;P2;SDS_P1;SDS_P2;PMS_P1;PMS_P2;Temp;Humidity;BMP_temperature;BMP_pressure;BME280_temperature;BME280_humidity;BME280_pressure;Samples;Min_cycle;Max_cycle;Signal;HPM_P1;HPM_P2
2023/05/31 00:00:46;;;;;;;;;;;;;;;21.80;31.16;97875.66;5047703;28;1123;-79
2023/05/31 00:03:11;;;;;;;;;;;;;;;21.70;31.26;97885.25;5063421;28;1090;-79
2023/05/31 00:05:37;;;;;;;;;;;;;;;21.91;31.20;97877.38;5047788;28;1197;-80
2023/05/31 00:08:03;;;;;;;;;;;;;;;21.91;30.69;97877.38;5063991;28;1184;-80
2023/05/31 00:10:28;;;;;;;;;;;;;;;22.23;30.95;97879.28;5040911;28;1306;-79
2023/05/31 00:12:54;;;;;;;;;;;;;;;22.44;31.74;97883.47;5007221;28;1972;-80
2023/05/31 00:15:19;;;;;;;;;;;;;;;22.60;32.03;97874.84;5024290;28;1064;-80
2023/05/31 00:17:45;;;;;;;;;;;;;;;22.71;32.38;97880.19;5042513;28;906;-79
2023/05/31 00:20:10;;;;;;;;;;;;;;;22.49;32.51;97880.09;5039713;28;933;-80
2023/05/31 00:22:36;;;;;;;;;;;;;;;22.12;32.78;97873.91;5024506;28;1434;-80
2023/05/31 00:25:01;;;;;;;;;;;;;;;22.17;32.39;97879.03;5040088;28;1045;-79
2023/05/31 00:27:26;;;;;;;;;;;;;;;22.04;32.22;97878.19;5041436;28;1137;-79
2023/05/31 00:29:52;;;;;;;;;;;;;;;21.64;32.80;97878.56;5056375;28;1097;-79
2023/05/31 00:32:17;;;;;;;;;;;;;;;21.96;32.36;97869.09;5024044;28;1977;-80
2023/05/31 00:34:43;;;;;;;;;;;;;;;21.72;32.65;97874.28;5022811;28;1352;-79
2023/05/31 00:37:08;;;;;;;;;;;;;;;21.85;32.64;97869.44;5041264;28;1096;-79
2023/05/31 00:39:34;;;;;;;;;;;;;;;22.20;31.96;97875.31;5023194;28;1056;-80
2023/05/31 00:42:00;;;;;;;;;;;;;;;21.59;32.75;97882.72;5069958;28;1142;-80
2023/05/31 00:44:25;;;;;;;;;;;;;;;21.46;32.93;97883.94;5023440;28;1071;-80
2023/05/31 00:46:50;;;;;;;;;;;;;;;21.78;32.26;97883.81;5024492;28;1118;-80
2023/05/31 00:49:16;;;;;;;;;;;;;;;21.64;32.62;97877.75;5022964;28;1205;-79
2023/05/31 00:51:42;;;;;;;;;;;;;;;21.85;32.12;97877.94;5024506;28;996;-80
2023/05/31 00:54:07;;;;;;;;;;;;;;;21.88;32.04;97875.47;5000059;28;1926;-79
2023/05/31 00:56:33;;;;;;;;;;;;;;;21.94;31.82;97884.97;5021567;28;1084;-80
2023/05/31 00:58:58;;;;;;;;;;;;;;;22.10;31.37;97882.88;5003931;28;1108;-80
2023/05/31 01:01:26;;;;;;;;;;;;;;;21.83;32.08;97886.09;5021894;28;952;-80
2023/05/31 01:03:55;;;;;;;;;;;;;;;21.78;31.75;97880.97;5020378;28;868;-79
2023/05/31 01:06:21;;;;;;;;;;;;;;;21.76;31.83;97886.31;5021303;28;1626;-79
2023/05/31 01:08:50;;;;;;;;;;;;;;;21.82;31.66;97881.69;5019138;28;1283;-79
2023/05/31 01:11:22;;;;;;;;;;;;;;;21.95;31.58;97883.72;5004328;28;1132;-80
2023/05/31 01:14:06;;;;;;;;;;;;;;;21.78;31.78;97886.66;5002537;28;1910;-80
2023/05/31 01:16:32;;;;;;;;;;;;;;;21.83;31.81;97891.75;5046042;28;1252;-79
2023/05/31 01:19:02;;;;;;;;;;;;;;;21.85;31.59;97889.25;5078881;28;950;-79
2023/05/31 01:21:51;;;;;;;;;;;;;;;22.48;32.18;97887.75;5063391;28;946;-80
2023/05/31 01:24:16;;;;;;;;;;;;;;;22.78;32.08;97875.03;5049394;28;1195;-79
2023/05/31 01:26:49;;;;;;;;;;;;;;;22.74;32.51;97882.09;5085990;28;909;-80
2023/05/31 01:29:19;;;;;;;;;;;;;;;22.26;33.12;97889.69;5067720;28;893;-79
2023/05/31 01:31:46;;;;;;;;;;;;;;;22.13;33.23;97881.19;5085446;28;884;-80
2023/05/31 01:34:11;;;;;;;;;;;;;;;21.82;33.19;97886.56;5067325;28;1913;-79
2023/05/31 01:36:37;;;;;;;;;;;;;;;21.78;33.18;97886.66;5084070;28;958;-79
2023/05/31 01:39:03;;;;;;;;;;;;;;;21.81;33.04;97885.75;5085013;28;985;-79
2023/05/31 01:41:31;;;;;;;;;;;;;;;21.85;33.09;97877.94;5067819;28;1160;-80
2023/05/31 01:43:56;;;;;;;;;;;;;;;21.75;32.96;97884.69;5066630;28;1110;-79
2023/05/31 01:46:22;;;;;;;;;;;;;;;21.88;32.84;97881.13;5051035;28;1091;-79
2023/05/31 01:48:47;;;;;;;;;;;;;;;22.03;32.27;97882.28;5081952;28;1053;-79
2023/05/31 01:51:14;;;;;;;;;;;;;;;21.90;32.69;97875.78;5049608;28;1118;-80
2023/05/31 01:53:40;;;;;;;;;;;;;;;21.69;33.22;97880.84;5098428;28;1918;-79
2023/05/31 01:56:07;;;;;;;;;;;;;;;22.22;32.10;97886.97;5066734;28;1164;-79
2023/05/31 01:58:33;;;;;;;;;;;;;;;21.81;32.35;97885.75;5097778;28;965;-80
2023/05/31 02:00:58;;;;;;;;;;;;;;;22.02;32.13;97884.31;5083560;28;1040;-79
2023/05/31 02:03:24;;;;;;;;;;;;;;;21.90;32.31;97890.75;5080727;28;1248;-79
2023/05/31 02:05:55;;;;;;;;;;;;;;;22.06;32.02;97892.69;5082461;28;1328;-78
2023/05/31 02:08:21;;;;;;;;;;;;;;;21.88;32.18;97895.28;5080936;28;1139;-80
2023/05/31 02:10:46;;;;;;;;;;;;;;;21.78;32.47;97883.81;5049823;28;1605;-79
2023/05/31 02:13:12;;;;;;;;;;;;;;;21.84;32.38;97887.69;5064464;28;1983;-80
2023/05/31 02:15:41;;;;;;;;;;;;;;;21.83;32.22;97896.63;5082425;28;1384;-80
2023/05/31 02:18:07;;;;;;;;;;;;;;;21.92;32.37;97898.81;5081311;28;975;-80
2023/05/31 02:20:33;;;;;;;;;;;;;;;22.04;31.81;97900.88;5114227;28;1011;-79
2023/05/31 02:23:00;;;;;;;;;;;;;;;21.98;32.16;97894.19;5082972;28;1121;-79
2023/05/31 02:25:25;;;;;;;;;;;;;;;21.97;32.15;97895.44;5066932;28;1118;-80
2023/05/31 02:27:51;;;;;;;;;;;;;;;21.97;31.90;97890.56;5066259;28;1276;-79
2023/05/31 02:30:17;;;;;;;;;;;;;;;21.79;32.02;97896.72;5082473;28;1077;-80
2023/05/31 02:32:43;;;;;;;;;;;;;;;21.82;31.95;97895.03;5066238;28;1886;-80
2023/05/31 02:35:09;;;;;;;;;;;;;;;21.94;31.75;97896.31;5066296;28;1162;-79
2023/05/31 02:37:35;;;;;;;;;;;;;;;21.98;31.63;97897.81;5067680;28;1121;-80
2023/05/31 02:40:01;;;;;;;;;;;;;;;21.95;31.61;97897.91;5064619;28;1071;-79
2023/05/31 02:42:26;;;;;;;;;;;;;;;21.82;32.10;97901.50;5065965;28;1125;-79
2023/05/31 02:44:52;;;;;;;;;;;;;;;21.73;31.90;97904.19;5048311;28;1583;-79
2023/05/31 02:47:17;;;;;;;;;;;;;;;21.89;31.55;97905.38;5065839;28;919;-79
2023/05/31 02:49:43;;;;;;;;;;;;;;;21.99;31.34;97909.94;5047850;28;1579;-80
2023/05/31 02:52:08;;;;;;;;;;;;;;;21.96;31.29;97913.66;5066202;28;1984;-80
2023/05/31 02:54:52;;;;;;;;;;;;;;;22.01;31.48;97918.75;5067278;28;964;-80
2023/05/31 02:57:23;;;;;;;;;;;;;;;21.89;31.43;97916.69;5050431;28;1556;-80
2023/05/31 02:59:48;;;;;;;;;;;;;;;21.83;31.39;97916.47;5082270;28;1220;-80
2023/05/31 03:02:16;;;;;;;;;;;;;;;22.40;31.68;97911.16;5049773;28;888;-80
2023/05/31 03:04:45;;;;;;;;;;;;;;;22.58;32.43;97912.16;5065499;28;822;-80
2023/05/31 03:07:11;;;;;;;;;;;;;;;22.88;32.80;97919.31;5065750;28;1115;-80
2023/05/31 03:09:36;;;;;;;;;;;;;;;22.98;32.31;97919.41;5048605;28;1289;-81
2023/05/31 03:12:03;;;;;;;;;;;;;;;22.17;33.44;97927.19;5066088;28;1439;-81
2023/05/31 03:14:30;;;;;;;;;;;;;;;21.74;34.03;97927.63;5065957;28;1216;-81
2023/05/31 03:16:55;;;;;;;;;;;;;;;21.89;33.40;97928.03;5083667;28;876;-81
2023/05/31 03:19:22;;;;;;;;;;;;;;;21.96;33.10;97927.81;5082410;28;841;-81
2023/05/31 03:21:51;;;;;;;;;;;;;;;22.08;32.95;97935.56;5084394;28;1276;-81
2023/05/31 03:24:16;;;;;;;;;;;;;;;21.82;33.15;97935.50;5048185;28;1286;-81
2023/05/31 03:26:45;;;;;;;;;;;;;;;21.73;33.25;97926.84;5083664;28;1157;-81
2023/05/31 03:29:10;;;;;;;;;;;;;;;21.73;33.01;97932.50;5081428;28;1256;-81
2023/05/31 03:31:36;;;;;;;;;;;;;;;21.95;32.52;97931.91;5082927;28;882;-81
2023/05/31 03:34:02;;;;;;;;;;;;;;;22.07;32.61;97939.63;5065285;28;1975;-81
2023/05/31 03:36:27;;;;;;;;;;;;;;;21.79;32.82;97930.72;5082630;28;860;-81
2023/05/31 03:38:53;;;;;;;;;;;;;;;21.82;32.67;97941.16;5048644;28;1401;-82
2023/05/31 03:41:19;;;;;;;;;;;;;;;22.03;32.38;97938.94;5028581;28;1194;-81
2023/05/31 03:43:45;;;;;;;;;;;;;;;21.97;32.50;97940.75;5060165;28;1122;-81
2023/05/31 03:46:11;;;;;;;;;;;;;;;21.92;32.43;97941.31;5028536;28;1083;-81
2023/05/31 03:48:36;;;;;;;;;;;;;;;22.03;32.35;97945.41;5059494;28;1245;-81
2023/05/31 03:51:02;;;;;;;;;;;;;;;21.98;32.14;97948.00;5045383;28;1370;-80
2023/05/31 03:53:28;;;;;;;;;;;;;;;22.04;32.01;97946.19;5043797;28;1891;-81
2023/05/31 03:55:53;;;;;;;;;;;;;;;22.19;31.63;97953.06;5029060;28;1172;-81
2023/05/31 03:58:20;;;;;;;;;;;;;;;22.03;32.15;97956.75;5042908;28;1510;-81
2023/05/31 04:00:46;;;;;;;;;;;;;;;21.81;32.33;97962.22;5011979;28;1332;-80
2023/05/31 04:03:12;;;;;;;;;;;;;;;21.96;32.15;97958.97;5060029;28;918;-81
2023/05/31 04:05:38;;;;;;;;;;;;;;;22.12;32.04;97973.09;5021090;28;1249;-80
2023/05/31 04:08:06;;;;;;;;;;;;;;;22.26;31.59;97969.84;4988263;28;1175;-81
2023/05/31 04:10:32;;;;;;;;;;;;;;;22.22;31.73;97969.16;4988245;28;1199;-81
2023/05/31 04:12:57;;;;;;;;;;;;;;;22.08;31.78;97975.22;5019027;28;1966;-81
2023/05/31 04:15:23;;;;;;;;;;;;;;;21.81;32.36;97967.91;5041187;28;1118;-81
2023/05/31 04:17:51;;;;;;;;;;;;;;;21.76;32.71;97976.94;5041258;28;1186;-81
2023/05/31 04:20:17;;;;;;;;;;;;;;;21.80;32.35;97965.50;5024413;28;1227;-80
2023/05/31 04:22:42;;;;;;;;;;;;;;;21.58;32.66;97976.63;5041216;28;1413;-81
2023/05/31 04:25:12;;;;;;;;;;;;;;;21.93;32.14;97980.50;5023985;28;1527;-80
2023/05/31 04:27:40;;;;;;;;;;;;;;;22.03;32.02;97979.41;5024666;28;1123;-81
2023/05/31 04:30:07;;;;;;;;;;;;;;;21.80;32.21;97986.09;5043336;28;1153;-80
2023/05/31 04:32:34;;;;;;;;;;;;;;;21.86;31.98;97992.03;5028517;28;1890;-80
2023/05/31 04:35:03;;;;;;;;;;;;;;;22.05;31.90;97985.41;5027767;28;1217;-80
2023/05/31 04:37:30;;;;;;;;;;;;;;;22.24;31.30;97992.19;5029263;28;937;-80
2023/05/31 04:39:59;;;;;;;;;;;;;;;22.06;31.68;97984.16;5027189;28;1215;-80
2023/05/31 04:42:27;;;;;;;;;;;;;;;21.91;32.08;97987.84;5040586;28;1198;-81
2023/05/31 04:45:01;;;;;;;;;;;;;;;22.10;31.46;97987.72;5068130;28;1267;-81
2023/05/31 04:47:31;;;;;;;;;;;;;;;22.00;31.68;97990.84;5085157;28;1098;-81
2023/05/31 04:49:59;;;;;;;;;;;;;;;22.03;31.61;97989.94;5067405;28;1222;-80
2023/05/31 04:52:29;;;;;;;;;;;;;;;22.13;31.54;97993.75;5068087;28;1989;-81
2023/05/31 04:54:55;;;;;;;;;;;;;;;22.12;31.47;97998.59;5083216;28;1071;-81
2023/05/31 04:57:22;;;;;;;;;;;;;;;22.06;31.84;97991.88;5084399;28;1094;-81
2023/05/31 04:59:48;;;;;;;;;;;;;;;22.00;31.83;97997.28;5083836;28;1134;-81
2023/05/31 05:02:14;;;;;;;;;;;;;;;21.87;32.01;98007.81;5085001;28;1248;-81
2023/05/31 05:04:41;;;;;;;;;;;;;;;22.06;31.56;97991.88;5083306;28;1283;-81
2023/05/31 05:07:07;;;;;;;;;;;;;;;22.00;31.90;98002.16;5068186;28;1256;-81
2023/05/31 05:09:35;;;;;;;;;;;;;;;21.90;31.95;98008.94;5082940;28;1164;-81
2023/05/31 05:12:03;;;;;;;;;;;;;;;22.01;31.85;98003.75;5067545;28;1237;-81
2023/05/31 05:14:30;;;;;;;;;;;;;;;22.07;31.59;98014.09;5083883;28;1984;-81
2023/05/31 05:16:56;;;;;;;;;;;;;;;22.17;31.35;98011.44;5084553;28;1215;-81
2023/05/31 05:19:22;;;;;;;;;;;;;;;22.02;31.46;97999.66;5082311;28;1130;-81
2023/05/31 05:21:49;;;;;;;;;;;;;;;21.97;31.71;98014.41;5084508;28;1162;-80
2023/05/31 05:24:16;;;;;;;;;;;;;;;22.12;31.33;98012.78;5066592;28;1394;-80
2023/05/31 05:26:43;;;;;;;;;;;;;;;22.05;31.65;98018.63;5068657;28;1184;-80
2023/05/31 05:29:08;;;;;;;;;;;;;;;21.97;31.66;98017.25;5063345;28;1189;-81
2023/05/31 05:31:34;;;;;;;;;;;;;;;22.04;31.58;98017.03;5064992;28;1098;-80
2023/05/31 05:34:02;;;;;;;;;;;;;;;22.05;31.58;98021.44;5046903;28;1906;-81
2023/05/31 05:36:27;;;;;;;;;;;;;;;22.10;31.49;98024.56;5081769;28;1480;-81
2023/05/31 05:38:58;;;;;;;;;;;;;;;22.01;31.60;98026.41;5063851;28;1267;-81
2023/05/31 05:41:25;;;;;;;;;;;;;;;22.06;31.43;98025.88;5081783;28;1264;-81
2023/05/31 05:43:51;;;;;;;;;;;;;;;22.30;31.21;98026.44;5079908;28;1099;-81
2023/05/31 05:46:16;;;;;;;;;;;;;;;22.27;30.88;98022.44;5064560;28;1169;-81
2023/05/31 05:48:42;;;;;;;;;;;;;;;22.07;31.29;98030.28;5062662;28;1297;-81
2023/05/31 05:51:08;;;;;;;;;;;;;;;21.83;31.79;98033.38;5065459;28;1121;-81
2023/05/31 05:53:33;;;;;;;;;;;;;;;21.96;31.65;98029.78;5078794;28;1891;-81
2023/05/31 05:55:59;;;;;;;;;;;;;;;21.97;31.62;98025.75;5051669;28;1110;-81
2023/05/31 05:58:34;;;;;;;;;;;;;;;21.94;31.74;98027.41;5051196;28;1174;-81
2023/05/31 06:01:03;;;;;;;;;;;;;;;21.84;31.86;98029.31;5083238;28;1004;-80
2023/05/31 06:03:30;;;;;;;;;;;;;;;22.07;31.62;98024.63;5083382;28;1117;-81
2023/05/31 06:05:56;;;;;;;;;;;;;;;21.88;31.96;98025.59;5069426;28;1391;-80
2023/05/31 06:08:22;;;;;;;;;;;;;;;22.03;31.67;98023.94;5083636;28;1078;-81
2023/05/31 06:10:48;;;;;;;;;;;;;;;21.98;31.63;98028.13;5069714;28;1205;-81
2023/05/31 06:13:15;;;;;;;;;;;;;;;22.17;31.21;98032.06;5083969;28;1980;-81
2023/05/31 06:15:41;;;;;;;;;;;;;;;22.08;31.36;98029.06;5052262;28;1220;-80
2023/05/31 06:18:08;;;;;;;;;;;;;;;22.15;31.27;98023.22;5067468;28;1126;-80
2023/05/31 06:20:33;;;;;;;;;;;;;;;21.95;31.56;98028.22;5046574;28;972;-81
2023/05/31 06:22:59;;;;;;;;;;;;;;;21.85;32.02;98025.22;5029838;28;1364;-81
2023/05/31 06:25:25;;;;;;;;;;;;;;;21.89;32.04;98038.50;5030415;28;1296;-81
2023/05/31 06:27:51;;;;;;;;;;;;;;;21.81;32.23;98038.72;5029931;28;1273;-81
2023/05/31 06:30:21;;;;;;;;;;;;;;;22.11;31.50;98039.53;5010597;28;1372;-81
2023/05/31 06:32:47;;;;;;;;;;;;;;;22.10;31.32;98037.91;5011189;28;1989;-81
2023/05/31 06:35:20;;;;;;;;;;;;;;;22.21;31.32;98041.25;5011385;28;1454;-81
2023/05/31 06:37:46;;;;;;;;;;;;;;;22.07;31.43;98035.97;5011505;28;1160;-81
2023/05/31 06:40:11;;;;;;;;;;;;;;;21.80;31.97;98039.91;5043350;28;1000;-81
2023/05/31 06:42:38;;;;;;;;;;;;;;;21.51;32.22;98005.13;5026370;28;1300;-81
2023/05/31 06:45:24;;;;;;;;;;;;;;;22.02;31.55;98036.50;5012576;28;1298;-80
2023/05/31 06:47:52;;;;;;;;;;;;;;;22.21;31.51;98046.94;5043576;28;1026;-81
2023/05/31 06:50:21;;;;;;;;;;;;;;;21.92;32.00;98040.47;5027300;28;996;-81
2023/05/31 06:53:22;;;;;;;;;;;;;;;22.16;31.76;98052.34;4981590;28;1950;-81
2023/05/31 06:55:57;;;;;;;;;;;;;;;22.03;31.60;98050.25;4983731;28;1060;-80
2023/05/31 06:58:24;;;;;;;;;;;;;;;21.69;32.50;98038.63;4982303;28;898;-80
2023/05/31 07:00:50;;;;;;;;;;;;;;;21.78;32.18;98048.09;4987607;28;1384;-80
2023/05/31 07:03:16;;;;;;;;;;;;;;;22.05;31.85;98042.09;5002343;28;1103;-81
2023/05/31 07:05:43;;;;;;;;;;;;;;;22.09;31.51;98044.81;4987105;28;1569;-80
2023/05/31 07:08:10;;;;;;;;;;;;;;;22.09;31.59;98044.81;5002476;28;1562;-80
2023/05/31 07:10:48;;;;;;;;;;;;;;;22.06;31.60;98046.50;5001934;28;1011;-81
2023/05/31 07:13:14;;;;;;;;;;;;;;;21.79;32.15;98046.84;4984954;28;1918;-81
2023/05/31 07:15:40;;;;;;;;;;;;;;;22.08;31.85;98051.75;5002428;28;1080;-81
2023/05/31 07:18:05;;;;;;;;;;;;;;;22.16;31.82;98049.53;5001408;28;965;-81
2023/05/31 07:20:32;;;;;;;;;;;;;;;22.03;32.00;98046.63;4970415;28;1096;-80
2023/05/31 07:22:58;;;;;;;;;;;;;;;22.10;31.76;98052.06;5002175;28;931;-81
2023/05/31 07:25:24;;;;;;;;;;;;;;;21.90;31.99;98051.41;5002389;28;960;-80
2023/05/31 07:27:49;;;;;;;;;;;;;;;21.87;32.18;98043.84;5059174;28;929;-80
2023/05/31 07:30:15;;;;;;;;;;;;;;;22.11;31.68;98053.69;5063941;28;1093;-80
2023/05/31 07:32:40;;;;;;;;;;;;;;;21.88;32.04;98046.22;5065264;28;1883;-80
2023/05/31 07:35:06;;;;;;;;;;;;;;;21.84;31.89;98046.28;5080981;28;942;-80
2023/05/31 07:37:32;;;;;;;;;;;;;;;21.66;32.05;98051.66;5065403;28;1239;-81
2023/05/31 07:39:57;;;;;;;;;;;;;;;21.96;31.44;98046.78;5063884;28;1129;-81
2023/05/31 07:42:23;;;;;;;;;;;;;;;21.95;31.43;98050.88;5081484;28;1118;-80
2023/05/31 07:44:49;;;;;;;;;;;;;;;22.13;30.82;98048.38;5063554;28;1333;-81
2023/05/31 07:47:15;;;;;;;;;;;;;;;22.03;31.01;98052.28;5064989;28;1030;-80
2023/05/31 07:49:40;;;;;;;;;;;;;;;21.63;31.85;98052.53;5063798;28;1070;-80
2023/05/31 07:52:06;;;;;;;;;;;;;;;21.56;31.61;98047.84;5065759;28;1029;-80
2023/05/31 07:54:32;;;;;;;;;;;;;;;21.84;31.39;98049.13;5066189;28;1902;-80
2023/05/31 07:56:58;;;;;;;;;;;;;;;21.87;31.05;98043.84;5102429;28;876;-80
2023/05/31 07:59:23;;;;;;;;;;;;;;;21.91;30.99;98058.66;5101074;28;955;-81
2023/05/31 08:01:49;;;;;;;;;;;;;;;21.97;30.92;98059.75;5066135;28;907;-81
2023/05/31 08:04:15;;;;;;;;;;;;;;;21.86;30.90;98065.66;5081972;28;951;-81
2023/05/31 08:06:41;;;;;;;;;;;;;;;22.09;30.38;98067.50;5067032;28;858;-81
2023/05/31 08:09:07;;;;;;;;;;;;;;;22.03;30.58;98069.28;5043997;28;1713;-81
2023/05/31 08:11:35;;;;;;;;;;;;;;;21.85;30.78;98064.88;5044015;28;1327;-81
2023/05/31 08:14:03;;;;;;;;;;;;;;;21.69;31.10;98062.06;5027527;28;1914;-81
2023/05/31 08:16:28;;;;;;;;;;;;;;;22.03;30.56;98069.28;5045193;28;980;-81
2023/05/31 08:18:54;;;;;;;;;;;;;;;21.81;30.78;98071.88;5060514;28;936;-81
2023/05/31 08:21:20;;;;;;;;;;;;;;;21.96;30.36;98070.25;5024498;28;1249;-80
2023/05/31 08:23:46;;;;;;;;;;;;;;;21.99;30.41;98074.25;5039946;28;1076;-80
2023/05/31 08:26:11;;;;;;;;;;;;;;;21.57;31.19;98074.13;5041619;28;1009;-81
2023/05/31 08:28:37;;;;;;;;;;;;;;;21.54;31.20;98078.63;5039972;28;949;-80
2023/05/31 08:31:02;;;;;;;;;;;;;;;21.60;31.24;98076.06;5025975;28;1068;-81
2023/05/31 08:33:31;;;;;;;;;;;;;;;21.61;31.11;98077.66;5022766;28;1914;-80
2023/05/31 08:35:59;;;;;;;;;;;;;;;21.53;31.10;98082.69;5025553;28;1139;-81
2023/05/31 08:38:28;;;;;;;;;;;;;;;21.81;30.91;98075.53;5022633;28;1228;-80
2023/05/31 08:40:54;;;;;;;;;;;;;;;21.88;30.59;98079.41;5041223;28;1012;-80
2023/05/31 08:43:21;;;;;;;;;;;;;;;21.99;30.08;98077.88;5043119;28;1004;-80
2023/05/31 08:45:48;;;;;;;;;;;;;;;22.06;29.99;98068.38;5044595;28;943;-81
2023/05/31 08:48:19;;;;;;;;;;;;;;;21.77;30.49;98074.03;5042955;28;948;-79
2023/05/31 08:50:45;;;;;;;;;;;;;;;21.56;31.17;98081.81;5027807;28;1423;-80
2023/05/31 08:53:10;;;;;;;;;;;;;;;21.73;30.99;98074.09;5059524;28;1898;-81
2023/05/31 08:55:39;;;;;;;;;;;;;;;21.76;30.77;98073.22;5043753;28;1002;-80
2023/05/31 08:58:04;;;;;;;;;;;;;;;21.85;30.51;98070.53;5048336;28;918;-80
2023/05/31 09:00:30;;;;;;;;;;;;;;;22.05;30.17;98066.78;5081516;28;1196;-80
2023/05/31 09:02:56;;;;;;;;;;;;;;;22.18;29.91;98069.72;5081126;28;894;-80
2023/05/31 09:05:21;;;;;;;;;;;;;;;21.83;30.51;98067.38;5081556;28;974;-79
2023/05/31 09:07:49;;;;;;;;;;;;;;;21.91;30.52;98070.00;5080811;28;1159;-81
2023/05/31 09:10:15;;;;;;;;;;;;;;;21.80;30.74;98062.59;5081908;28;827;-80
2023/05/31 09:12:41;;;;;;;;;;;;;;;21.68;30.63;98066.16;5047271;28;1969;-80
2023/05/31 09:15:07;;;;;;;;;;;;;;;21.88;30.44;98063.19;5081451;28;1033;-81
2023/05/31 09:17:32;;;;;;;;;;;;;;;21.58;31.06;98075.72;5085206;28;921;-81
2023/05/31 09:19:58;;;;;;;;;;;;;;;21.68;30.59;98065.34;5067504;28;1579;-80
2023/05/31 09:22:24;;;;;;;;;;;;;;;21.64;30.69;98064.66;5085673;28;928;-81
2023/05/31 09:24:50;;;;;;;;;;;;;;;21.75;30.52;98062.31;5067393;28;961;-80
2023/05/31 09:27:16;;;;;;;;;;;;;;;21.89;30.32;98061.97;5051207;28;1122;-80
2023/05/31 09:29:50;;;;;;;;;;;;;;;21.89;30.25;98058.34;5082447;28;870;-80
2023/05/31 09:32:16;;;;;;;;;;;;;;;21.69;30.57;98066.94;5084242;28;937;-80
2023/05/31 09:34:42;;;;;;;;;;;;;;;21.90;30.30;98071.25;5049883;28;2048;-81
2023/05/31 09:37:07;;;;;;;;;;;;;;;21.87;30.32;98058.00;5084220;28;911;-81
2023/05/31 09:39:33;;;;;;;;;;;;;;;21.90;30.44;98062.75;5066378;28;907;-80
2023/05/31 09:41:59;;;;;;;;;;;;;;;21.88;30.17;98056.75;5067152;28;1451;-81
2023/05/31 09:44:26;;;;;;;;;;;;;;;21.66;30.69;98062.97;5050165;28;1265;-81
2023/05/31 09:46:51;;;;;;;;;;;;;;;21.64;30.59;98058.97;5050873;28;1150;-81
2023/05/31 09:49:16;;;;;;;;;;;;;;;21.50;30.96;98060.13;5066904;28;1288;-81
2023/05/31 09:51:49;;;;;;;;;;;;;;;21.75;30.57;98053.84;5067925;28;1047;-80
2023/05/31 09:54:16;;;;;;;;;;;;;;;21.61;30.73;98060.69;5066551;28;1922;-81
2023/05/31 09:56:42;;;;;;;;;;;;;;;21.83;30.33;98047.53;5051121;28;1107;-81
2023/05/31 09:59:08;;;;;;;;;;;;;;;21.77;30.51;98055.00;5081088;28;944;-80
2023/05/31 10:01:33;;;;;;;;;;;;;;;21.71;30.67;98053.13;5085118;28;944;-81
2023/05/31 10:03:59;;;;;;;;;;;;;;;21.49;31.32;98052.88;5051232;28;1324;-80
2023/05/31 10:06:24;;;;;;;;;;;;;;;21.64;30.81;98059.78;5084473;28;959;-81
2023/05/31 10:08:50;;;;;;;;;;;;;;;21.72;30.80;98055.53;5032539;28;1178;-80
2023/05/31 10:11:25;;;;;;;;;;;;;;;21.60;30.86;98050.56;5067613;28;991;-80
2023/05/31 10:13:50;;;;;;;;;;;;;;;21.92;30.13;98058.25;5066043;28;1984;-81
2023/05/31 10:16:16;;;;;;;;;;;;;;;21.44;31.17;98050.59;5066973;28;1469;-81
2023/05/31 10:18:45;;;;;;;;;;;;;;;21.47;30.92;98039.19;5049064;28;1039;-80
2023/05/31 10:21:22;;;;;;;;;;;;;;;21.71;30.45;98042.63;5068155;28;953;-81
2023/05/31 10:23:50;;;;;;;;;;;;;;;21.68;30.54;98037.03;5065494;28;978;-80
2023/05/31 10:26:17;;;;;;;;;;;;;;;21.97;30.38;98049.19;5051484;28;1048;-81
2023/05/31 10:29:03;;;;;;;;;;;;;;;21.74;30.59;98041.72;5049091;28;1096;-81
2023/05/31 10:31:29;;;;;;;;;;;;;;;21.78;30.47;98042.41;4984725;28;1146;-80
2023/05/31 10:33:56;;;;;;;;;;;;;;;21.72;30.44;98044.19;4967381;28;1910;-81
2023/05/31 10:36:22;;;;;;;;;;;;;;;21.66;30.71;98046.00;4982824;28;1053;-81
2023/05/31 10:38:53;;;;;;;;;;;;;;;21.55;30.80;98040.59;4963880;29;949;-81
2023/05/31 10:41:20;;;;;;;;;;;;;;;21.71;30.75;98038.97;4933366;28;1053;-80
2023/05/31 10:43:50;;;;;;;;;;;;;;;21.99;30.40;98038.22;4931522;28;1124;-81
2023/05/31 10:46:18;;;;;;;;;;;;;;;21.81;30.25;98023.72;4933262;29;1270;-80
2023/05/31 10:48:46;;;;;;;;;;;;;;;21.28;31.45;98035.16;4964213;28;1053;-81
2023/05/31 10:51:12;;;;;;;;;;;;;;;21.59;30.96;98035.63;4933743;28;1097;-80
2023/05/31 10:53:38;;;;;;;;;;;;;;;21.55;30.93;98039.78;4965966;28;1910;-80
2023/05/31 10:56:18;;;;;;;;;;;;;;;21.46;31.13;98023.44;4984924;28;1259;-81
2023/05/31 10:58:47;;;;;;;;;;;;;;;21.59;30.77;98023.50;4982442;28;966;-81
2023/05/31 11:01:13;;;;;;;;;;;;;;;21.63;30.47;98024.22;4984752;28;1017;-80
2023/05/31 11:03:46;;;;;;;;;;;;;;;21.48;30.87;98020.94;4982422;28;1333;-81
2023/05/31 11:06:12;;;;;;;;;;;;;;;21.38;31.06;98018.41;4984681;28;1035;-81
2023/05/31 11:08:38;;;;;;;;;;;;;;;21.60;30.73;98013.75;5043284;28;1019;-81
2023/05/31 11:11:26;;;;;;;;;;;;;;;21.78;30.29;98014.09;5123244;28;1016;-81
2023/05/31 11:14:14;;;;;;;;;;;;;;;21.81;30.26;98016.03;5060544;28;1913;-81
2023/05/31 11:16:43;;;;;;;;;;;;;;;21.59;30.66;98018.63;5042447;28;1142;-80
2023/05/31 11:19:13;;;;;;;;;;;;;;;21.65;30.54;98016.06;5061103;28;1013;-81
2023/05/31 11:21:51;;;;;;;;;;;;;;;21.72;30.10;98009.44;5046379;28;1103;-80
2023/05/31 11:24:52;;;;;;;;;;;;;;;21.83;30.01;98004.25;5036974;28;975;-80
2023/05/31 11:27:18;;;;;;;;;;;;;;;21.61;30.53;98008.91;5003042;28;958;-80
2023/05/31 11:29:44;;;;;;;;;;;;;;;21.54;30.76;98004.22;5001527;28;1017;-81
2023/05/31 11:32:10;;;;;;;;;;;;;;;22.11;30.50;98005.53;5003144;28;1004;-80
2023/05/31 11:34:36;;;;;;;;;;;;;;;22.75;30.08;98002.81;4985598;28;1960;-80
2023/05/31 11:37:02;;;;;;;;;;;;;;;22.78;30.68;98002.69;5002019;28;981;-81
2023/05/31 11:39:28;;;;;;;;;;;;;;;22.48;31.24;98008.91;5001092;28;1018;-81
2023/05/31 11:41:54;;;;;;;;;;;;;;;22.03;31.93;98009.78;4986790;28;924;-81
2023/05/31 11:44:20;;;;;;;;;;;;;;;22.02;31.73;98011.00;5001510;28;886;-81
2023/05/31 11:46:46;;;;;;;;;;;;;;;21.83;31.70;98010.72;4999144;28;1236;-80
2023/05/31 11:49:12;;;;;;;;;;;;;;;21.90;31.52;97997.59;4982158;28;1124;-81
2023/05/31 11:51:41;;;;;;;;;;;;;;;21.74;31.62;98004.91;5015480;28;1042;-81
2023/05/31 11:54:08;;;;;;;;;;;;;;;21.69;31.62;98005.44;5004181;28;1918;-81
2023/05/31 11:56:35;;;;;;;;;;;;;;;21.77;31.38;98006.84;5021803;28;1245;-81
2023/05/31 11:59:01;;;;;;;;;;;;;;;21.88;30.96;98003.72;5005001;28;959;-81
2023/05/31 12:01:27;;;;;;;;;;;;;;;22.05;30.59;98018.63;4993741;28;1270;-80
2023/05/31 12:04:01;;;;;;;;;;;;;;;21.87;30.97;98021.16;4984410;28;1077;-81
2023/05/31 12:06:28;;;;;;;;;;;;;;;21.76;30.67;98013.75;5001437;28;1033;-81
2023/05/31 12:08:54;;;;;;;;;;;;;;;21.75;30.63;98006.47;4984648;28;905;-81
2023/05/31 12:11:20;;;;;;;;;;;;;;;21.48;31.46;98001.13;4985086;28;933;-81
2023/05/31 12:13:45;;;;;;;;;;;;;;;21.50;31.12;97997.84;4984159;28;1918;-81
2023/05/31 12:16:11;;;;;;;;;;;;;;;21.42;31.25;97990.81;4985407;28;1035;-81
2023/05/31 12:18:36;;;;;;;;;;;;;;;21.57;30.97;97986.34;5034536;28;1180;-80
2023/05/31 12:21:06;;;;;;;;;;;;;;;21.78;30.76;97985.78;5028467;28;1023;-80
2023/05/31 12:23:31;;;;;;;;;;;;;;;22.03;30.27;97989.94;5026197;28;913;-81
2023/05/31 12:25:57;;;;;;;;;;;;;;;21.76;30.37;97993.94;5044260;28;920;-81
2023/05/31 12:28:23;;;;;;;;;;;;;;;21.95;30.26;97988.56;5026410;28;1275;-81
2023/05/31 12:30:49;;;;;;;;;;;;;;;21.87;30.02;97987.19;5061044;28;1022;-81
2023/05/31 12:33:15;;;;;;;;;;;;;;;21.64;30.40;97993.84;5015631;28;1989;-80
2023/05/31 12:35:41;;;;;;;;;;;;;;;21.37;30.86;97999.81;5082890;28;936;-80
2023/05/31 12:38:07;;;;;;;;;;;;;;;21.52;30.37;97992.56;5080941;28;912;-81
2023/05/31 12:40:36;;;;;;;;;;;;;;;21.62;30.19;97999.97;5081513;28;877;-79
2023/05/31 12:43:01;;;;;;;;;;;;;;;21.66;30.01;97992.19;5063854;28;1292;-81
2023/05/31 12:45:27;;;;;;;;;;;;;;;21.76;29.90;97988.25;5081514;28;982;-81
2023/05/31 12:47:56;;;;;;;;;;;;;;;21.72;30.11;97987.56;5082942;28;933;-81
2023/05/31 12:50:22;;;;;;;;;;;;;;;21.72;29.85;97993.22;5066057;28;936;-80
2023/05/31 12:52:54;;;;;;;;;;;;;;;21.70;29.86;97992.06;5085327;28;1910;-80
2023/05/31 12:55:19;;;;;;;;;;;;;;;21.76;29.52;97993.09;5085519;28;964;-81
2023/05/31 12:57:45;;;;;;;;;;;;;;;22.38;30.00;97987.31;5084567;28;1165;-81
2023/05/31 13:00:11;;;;;;;;;;;;;;;22.60;30.16;97976.94;5068084;28;1221;-81